Time;durP1;ratioP1;P1;durP2;ratioP2;P2;SDS_P1;SDS_P2;PMS_P1;PMS_P2;Temp;Humidity;BMP_temperature;BMP_pressure;BME280_temperature;BME280_humidity;BME280_pressure;Samples;Min_cycle;Max_cycle;Signal;HPM_P1;HPM_P2
2023/10/23 00:00:01;;;;;;;0.10;0.10;;;19.50;53.50;;;;;;5091958;28;20505;-45
2023/10/23 00:02:33;;;;;;;0.00;0.00;;;19.50;53.50;;;;;;5090882;28;20198;-45
2023/10/23 00:05:03;;;;;;;0.00;0.00;;;19.60;53.50;;;;;;5091314;28;20672;-45
2023/10/23 00:07:34;;;;;;;0.10;0.10;;;19.60;53.50;;;;;;5091086;28;20692;-44
2023/10/23 00:10:07;;;;;;;0.10;0.10;;;19.60;53.40;;;;;;5091611;28;20240;-48
2023/10/23 00:12:38;;;;;;;0.10;0.10;;;19.60;53.30;;;;;;5090949;28;20194;-47
2023/10/23 00:15:09;;;;;;;0.10;0.10;;;19.60;53.30;;;;;;5091219;28;20186;-45
2023/10/23 00:17:40;;;;;;;0.10;0.10;;;19.70;53.40;;;;;;5083134;28;20685;-45
2023/10/23 00:20:11;;;;;;;0.00;0.00;;;19.70;53.40;;;;;;5071462;28;20198;-45
2023/10/23 00:22:42;;;;;;;0.10;0.10;;;19.70;53.40;;;;;;5071791;28;20202;-58
2023/10/23 00:25:15;;;;;;;0.10;0.10;;;19.70;53.20;;;;;;5071687;28;20199;-54
2023/10/23 00:27:45;;;;;;;0.10;0.10;;;19.70;53.10;;;;;;5071944;28;20226;-58
2023/10/23 00:30:16;;;;;;;0.00;0.00;;;19.70;53.40;;;;;;5089871;28;20186;-47
2023/10/23 00:32:47;;;;;;;0.10;0.10;;;19.60;53.50;;;;;;5091729;28;20209;-47
2023/10/23 00:35:18;;;;;;;0.00;0.00;;;19.60;53.50;;;;;;5091749;28;20202;-47
2023/10/23 00:37:48;;;;;;;0.10;0.10;;;19.60;53.80;;;;;;5091489;28;20194;-45
2023/10/23 00:40:21;;;;;;;0.10;0.10;;;19.60;53.90;;;;;;5091749;28;20190;-45
2023/10/23 00:42:51;;;;;;;0.00;0.00;;;19.60;54.10;;;;;;5091618;28;20198;-48
2023/10/23 00:45:22;;;;;;;0.00;0.00;;;19.70;54.10;;;;;;5091830;28;20201;-47
2023/10/23 00:47:53;;;;;;;0.10;0.10;;;19.70;54.10;;;;;;5091641;28;20464;-46
2023/10/23 00:50:23;;;;;;;0.10;0.10;;;19.70;54.10;;;;;;5091255;28;20550;-46
2023/10/23 00:52:54;;;;;;;0.10;0.10;;;19.70;54.00;;;;;;5091311;28;20194;-45
2023/10/23 00:55:27;;;;;;;0.00;0.00;;;19.70;53.90;;;;;;5091430;28;20194;-45
2023/10/23 00:57:57;;;;;;;0.10;0.10;;;19.80;54.00;;;;;;5091297;28;20548;-45
2023/10/23 01:00:29;;;;;;;0.10;0.10;;;19.80;53.90;;;;;;5091653;28;20205;-45
2023/10/23 01:03:00;;;;;;;0.08;0.08;;;19.80;53.90;;;;;;5094581;28;20201;-45
2023/10/23 01:05:30;;;;;;;0.00;0.00;;;19.90;53.90;;;;;;5085238;28;20205;-45
2023/10/23 01:08:01;;;;;;;0.00;0.00;;;19.90;53.90;;;;;;5095085;28;20226;-45
2023/10/23 01:10:34;;;;;;;0.10;0.10;;;19.90;53.90;;;;;;5095476;28;20201;-43
2023/10/23 01:13:09;;;;;;;0.00;0.00;;;19.90;53.80;;;;;;5095690;28;20194;-46
2023/10/23 01:15:39;;;;;;;0.00;0.00;;;20.00;53.80;;;;;;5095071;28;20200;-45
2023/10/23 01:18:10;;;;;;;0.10;0.10;;;20.00;53.80;;;;;;5094921;28;20218;-47
2023/10/23 01:20:41;;;;;;;0.10;0.10;;;20.00;53.80;;;;;;5095220;28;20191;-46
2023/10/23 01:23:12;;;;;;;0.15;0.15;;;20.00;53.80;;;;;;5094859;28;20194;-45
2023/10/23 01:25:45;;;;;;;0.10;0.10;;;20.10;53.80;;;;;;5094711;28;20216;-45
2023/10/23 01:28:15;;;;;;;0.10;0.10;;;20.10;53.80;;;;;;5093588;28;20415;-47
2023/10/23 01:30:46;;;;;;;0.10;0.10;;;20.10;53.70;;;;;;5092959;28;20198;-46
2023/10/23 01:33:17;;;;;;;0.00;0.00;;;20.10;53.60;;;;;;5095227;28;20205;-47
2023/10/23 01:35:47;;;;;;;0.10;0.10;;;20.20;53.70;;;;;;5094971;28;20209;-48
2023/10/23 01:38:18;;;;;;;0.00;0.00;;;20.20;53.60;;;;;;5094121;28;20214;-46
2023/10/23 01:40:51;;;;;;;0.10;0.10;;;20.20;53.60;;;;;;5094413;28;20243;-47
2023/10/23 01:43:21;;;;;;;0.10;0.10;;;20.20;53.50;;;;;;5094395;28;20716;-46
2023/10/23 01:45:52;;;;;;;0.00;0.00;;;20.30;53.50;;;;;;5094643;28;20194;-46
2023/10/23 01:48:23;;;;;;;0.10;0.10;;;20.30;53.40;;;;;;5094526;28;20237;-48
2023/10/23 01:50:54;;;;;;;0.10;0.10;;;20.30;53.30;;;;;;5094823;28;20226;-46
2023/10/23 01:53:24;;;;;;;0.10;0.10;;;20.30;53.30;;;;;;5094556;28;20190;-48
2023/10/23 01:55:57;;;;;;;0.00;0.00;;;20.30;53.30;;;;;;5094647;28;20209;-47
2023/10/23 01:58:28;;;;;;;0.00;0.00;;;20.40;53.30;;;;;;5094715;28;20577;-46
2023/10/23 02:00:59;;;;;;;0.10;0.10;;;20.40;53.30;;;;;;5094592;28;20649;-48
2023/10/23 02:03:29;;;;;;;0.00;0.00;;;20.50;53.30;;;;;;5094474;28;20577;-46
2023/10/23 02:06:00;;;;;;;0.00;0.00;;;20.50;53.30;;;;;;5094525;28;20194;-56
2023/10/23 02:08:31;;;;;;;0.00;0.00;;;20.50;53.20;;;;;;5094126;28;20613;-47
2023/10/23 02:11:03;;;;;;;0.10;0.10;;;20.50;53.20;;;;;;5094283;28;20553;-46
2023/10/23 02:13:34;;;;;;;0.00;0.00;;;20.50;53.10;;;;;;5092680;28;20197;-47
2023/10/23 02:16:04;;;;;;;0.10;0.10;;;20.50;53.10;;;;;;5093697;28;20208;-46
2023/10/23 02:18:35;;;;;;;0.10;0.10;;;20.50;53.20;;;;;;5094032;28;20577;-45
2023/10/23 02:21:06;;;;;;;0.10;0.10;;;20.50;53.30;;;;;;5092215;28;20198;-45
2023/10/23 02:23:37;;;;;;;0.00;0.00;;;20.60;53.30;;;;;;5092261;28;20193;-48
2023/10/23 02:26:09;;;;;;;0.10;0.10;;;20.60;53.40;;;;;;5093860;28;20209;-48
2023/10/23 02:28:40;;;;;;;0.08;0.08;;;20.60;53.30;;;;;;5094063;28;20230;-45
2023/10/23 02:31:11;;;;;;;0.10;0.10;;;20.70;53.40;;;;;;5093740;28;20198;-46
2023/10/23 02:33:41;;;;;;;0.10;0.10;;;20.60;53.20;;;;;;5093808;28;20566;-48
2023/10/23 02:36:12;;;;;;;0.10;0.10;;;20.70;53.30;;;;;;5093812;28;20194;-48
2023/10/23 02:38:43;;;;;;;0.00;0.00;;;20.70;53.20;;;;;;5093800;28;20225;-46
2023/10/23 02:41:15;;;;;;;0.10;0.10;;;20.70;53.20;;;;;;5093955;28;20589;-45
2023/10/23 02:43:46;;;;;;;0.00;0.00;;;20.80;53.20;;;;;;5093966;28;20198;-46
2023/10/23 02:46:17;;;;;;;0.10;0.10;;;20.80;53.20;;;;;;5093730;28;20221;-46
2023/10/23 02:48:47;;;;;;;0.05;0.05;;;20.80;53.10;;;;;;5093370;28;20233;-47
2023/10/23 02:51:18;;;;;;;0.10;0.10;;;20.80;53.10;;;;;;5093682;28;20198;-45
2023/10/23 02:53:49;;;;;;;0.00;0.00;;;20.90;53.10;;;;;;5092712;28;20194;-47
2023/10/23 02:56:21;;;;;;;0.10;0.10;;;20.90;53.00;;;;;;5093270;28;20199;-45
2023/10/23 02:58:52;;;;;;;0.10;0.10;;;20.90;53.00;;;;;;5093690;28;20594;-47
2023/10/23 03:01:24;;;;;;;0.00;0.00;;;21.00;53.00;;;;;;5093441;28;20194;-47
2023/10/23 03:03:54;;;;;;;0.10;0.10;;;21.00;52.90;;;;;;5093510;28;20658;-46
2023/10/23 03:06:25;;;;;;;0.10;0.10;;;21.10;53.00;;;;;;5092850;28;20194;-48
2023/10/23 03:08:55;;;;;;;0.10;0.10;;;21.10;52.90;;;;;;5092975;28;20222;-45
2023/10/23 03:11:28;;;;;;;0.10;0.10;;;21.10;52.80;;;;;;5093030;28;20194;-45
2023/10/23 03:13:59;;;;;;;0.10;0.10;;;21.20;52.90;;;;;;5093236;28;20198;-48
2023/10/23 03:16:29;;;;;;;0.10;0.10;;;21.20;52.80;;;;;;5093047;28;20198;-48
2023/10/23 03:19:00;;;;;;;0.03;0.03;;;21.20;52.80;;;;;;5092947;28;20217;-46
2023/10/23 03:21:31;;;;;;;0.00;0.00;;;21.30;52.80;;;;;;5092692;28;20672;-48
2023/10/23 03:24:03;;;;;;;0.10;0.10;;;21.30;52.80;;;;;;5093025;28;20621;-48
2023/10/23 03:26:35;;;;;;;0.10;0.10;;;21.30;52.80;;;;;;5093083;28;20286;-49
2023/10/23 03:29:06;;;;;;;0.00;0.00;;;21.30;52.70;;;;;;5092624;28;20229;-48
2023/10/23 03:31:37;;;;;;;0.10;0.10;;;21.40;52.70;;;;;;5092971;28;20653;-46
2023/10/23 03:34:07;;;;;;;0.10;0.10;;;21.40;52.70;;;;;;5092738;28;20678;-47
2023/10/23 03:36:38;;;;;;;0.10;0.10;;;21.50;52.70;;;;;;5090626;28;20198;-50
2023/10/23 03:39:09;;;;;;;0.00;0.00;;;21.40;52.70;;;;;;5072921;28;20214;-46
2023/10/23 03:41:42;;;;;;;0.10;0.10;;;21.50;52.70;;;;;;5072611;28;20201;-48
2023/10/23 03:44:13;;;;;;;0.10;0.10;;;21.50;52.70;;;;;;5072190;28;20191;-46
2023/10/23 03:46:43;;;;;;;0.10;0.10;;;21.50;52.70;;;;;;5072015;28;20347;-46
2023/10/23 03:49:14;;;;;;;0.10;0.10;;;21.60;52.60;;;;;;5071953;28;20240;-45
2023/10/23 03:51:45;;;;;;;0.10;0.10;;;21.60;52.50;;;;;;5077731;28;20194;-43
2023/10/23 03:54:15;;;;;;;0.10;0.10;;;21.70;52.50;;;;;;5089811;28;20190;-45
2023/10/23 03:56:48;;;;;;;0.10;0.10;;;21.70;52.50;;;;;;5091263;28;20201;-46
2023/10/23 03:59:18;;;;;;;0.10;0.10;;;21.70;52.40;;;;;;5077918;28;20218;-47
2023/10/23 04:01:49;;;;;;;0.10;0.10;;;21.70;52.40;;;;;;5070826;28;20195;-44
2023/10/23 04:04:20;;;;;;;0.00;0.00;;;21.80;52.40;;;;;;5086240;28;20206;-46
2023/10/23 04:06:50;;;;;;;0.05;0.05;;;21.80;52.30;;;;;;5091163;28;20197;-49
2023/10/23 04:09:21;;;;;;;0.10;0.10;;;21.80;52.30;;;;;;5091975;28;20225;-48
2023/10/23 04:11:54;;;;;;;0.08;0.08;;;21.90;52.30;;;;;;5091503;28;20201;-48
2023/10/23 04:14:25;;;;;;;0.10;0.10;;;21.90;52.20;;;;;;5091441;28;20236;-48
2023/10/23 04:16:56;;;;;;;0.00;0.00;;;21.90;52.10;;;;;;5091683;28;20711;-45
2023/10/23 04:19:26;;;;;;;0.00;0.00;;;21.90;52.10;;;;;;5091055;28;20214;-48
2023/10/23 04:21:57;;;;;;;0.00;0.00;;;22.00;52.10;;;;;;5090709;28;20198;-49
2023/10/23 04:24:28;;;;;;;0.10;0.10;;;22.00;52.00;;;;;;5088512;28;20205;-49
2023/10/23 04:27:00;;;;;;;0.00;0.00;;;22.00;52.00;;;;;;5092000;28;20201;-46
2023/10/23 04:29:31;;;;;;;0.00;0.00;;;22.00;51.90;;;;;;5091669;28;20221;-46
2023/10/23 04:32:01;;;;;;;0.00;0.00;;;22.10;51.90;;;;;;5090469;28;20202;-46
2023/10/23 04:34:32;;;;;;;0.00;0.00;;;22.10;52.50;;;;;;5091721;28;20190;-49
2023/10/23 04:37:03;;;;;;;0.00;0.00;;;22.10;51.80;;;;;;5090338;28;20203;-46
2023/10/23 04:39:33;;;;;;;0.08;0.08;;;22.10;51.70;;;;;;5091574;28;20217;-48
2023/10/23 04:42:06;;;;;;;0.00;0.00;;;22.20;51.70;;;;;;5089932;28;20194;-48
2023/10/23 04:44:37;;;;;;;0.00;0.00;;;22.20;51.70;;;;;;5090630;28;20198;-44
2023/10/23 04:47:08;;;;;;;0.10;0.10;;;22.20;51.60;;;;;;5090646;28;20200;-45
2023/10/23 04:49:38;;;;;;;0.10;0.10;;;22.30;51.60;;;;;;5091195;28;20229;-46
2023/10/23 04:52:10;;;;;;;0.10;0.10;;;22.30;51.60;;;;;;5090013;28;20206;-49
2023/10/23 04:54:41;;;;;;;0.00;0.00;;;22.30;51.60;;;;;;5104171;28;20185;-46
2023/10/23 04:57:13;;;;;;;0.10;0.10;;;22.30;51.60;;;;;;5108015;28;20201;-48
2023/10/23 04:59:44;;;;;;;0.00;0.00;;;22.30;51.50;;;;;;5085296;28;20689;-47
2023/10/23 05:02:15;;;;;;;0.10;0.10;;;22.40;51.50;;;;;;5091240;28;20217;-49
2023/10/23 05:04:45;;;;;;;0.00;0.00;;;22.40;51.50;;;;;;5090455;28;20649;-46
2023/10/23 05:07:16;;;;;;;0.00;0.00;;;22.40;51.50;;;;;;5091058;28;20561;-46
2023/10/23 05:09:47;;;;;;;0.10;0.10;;;22.40;51.40;;;;;;5090799;28;20306;-46
2023/10/23 05:12:20;;;;;;;0.00;0.00;;;22.50;51.40;;;;;;5091265;28;20198;-46
2023/10/23 05:14:51;;;;;;;0.10;0.10;;;22.50;51.70;;;;;;5090467;28;20194;-47
2023/10/23 05:17:23;;;;;;;0.00;0.00;;;22.50;51.40;;;;;;5090793;28;20623;-46
2023/10/23 05:19:54;;;;;;;0.00;0.00;;;22.50;51.30;;;;;;5105623;28;20217;-46
2023/10/23 05:22:25;;;;;;;0.00;0.00;;;22.50;51.30;;;;;;5110823;28;20197;-48
2023/10/23 05:24:55;;;;;;;0.00;0.00;;;22.50;51.30;;;;;;5097641;28;20202;-46
2023/10/23 05:27:28;;;;;;;0.03;0.03;;;22.50;51.30;;;;;;5090941;28;20194;-48
2023/10/23 05:29:59;;;;;;;0.10;0.10;;;22.60;51.30;;;;;;5095344;28;20222;-45
2023/10/23 05:32:29;;;;;;;0.00;0.00;;;22.60;51.30;;;;;;5090760;28;20195;-49
2023/10/23 05:35:00;;;;;;;0.10;0.10;;;22.60;51.40;;;;;;5090724;28;20198;-47
2023/10/23 05:37:30;;;;;;;0.10;0.10;;;22.60;51.50;;;;;;5090273;28;20198;-47
2023/10/23 05:40:01;;;;;;;0.05;0.05;;;22.70;51.50;;;;;;5090080;28;20557;-50
2023/10/23 05:42:34;;;;;;;0.00;0.00;;;22.70;51.60;;;;;;5090044;28;20200;-48
2023/10/23 05:45:04;;;;;;;0.10;0.10;;;22.70;51.60;;;;;;5086957;28;20190;-47
2023/10/23 05:47:35;;;;;;;0.10;0.10;;;22.70;51.50;;;;;;5071382;28;20199;-45
2023/10/23 05:50:06;;;;;;;0.00;0.00;;;22.70;51.50;;;;;;5103878;28;20221;-47
2023/10/23 05:52:37;;;;;;;0.03;0.03;;;22.70;51.60;;;;;;5074296;28;20674;-46
2023/10/23 05:55:08;;;;;;;0.00;0.00;;;22.70;51.50;;;;;;5089092;28;20809;-45
2023/10/23 05:57:41;;;;;;;0.00;0.00;;;22.70;51.60;;;;;;5094656;28;20220;-44
2023/10/23 06:00:12;;;;;;;0.05;0.05;;;22.70;51.50;;;;;;5094416;28;20190;-47
2023/10/23 06:02:42;;;;;;;0.00;0.00;;;22.70;51.50;;;;;;5090954;28;20198;-47
2023/10/23 06:05:13;;;;;;;0.03;0.03;;;22.70;51.60;;;;;;5091073;28;20194;-46
2023/10/23 06:07:44;;;;;;;0.03;0.03;;;22.70;51.50;;;;;;5093965;28;20198;-46
2023/10/23 06:10:14;;;;;;;0.00;0.00;;;22.70;51.50;;;;;;5093726;28;20217;-48
2023/10/23 06:12:47;;;;;;;0.00;0.00;;;22.80;51.50;;;;;;5092425;28;20209;-45
2023/10/23 06:15:18;;;;;;;0.03;0.03;;;22.70;51.40;;;;;;5093341;28;20190;-46
2023/10/23 06:17:50;;;;;;;0.00;0.00;;;22.80;51.40;;;;;;5092742;28;20203;-46
2023/10/23 06:20:21;;;;;;;0.10;0.10;;;22.80;51.30;;;;;;5093841;28;20202;-46
2023/10/23 06:22:52;;;;;;;0.00;0.00;;;22.80;51.20;;;;;;5089076;28;20199;-44
2023/10/23 06:25:22;;;;;;;0.05;0.05;;;22.70;51.10;;;;;;5093523;28;20194;-45
2023/10/23 06:27:55;;;;;;;0.00;0.00;;;22.70;51.00;;;;;;5093078;28;20202;-45
2023/10/23 06:30:25;;;;;;;0.00;0.00;;;22.70;51.00;;;;;;5093614;28;20217;-45
2023/10/23 06:32:56;;;;;;;0.10;0.10;;;22.70;51.00;;;;;;5092828;28;20198;-46
2023/10/23 06:35:27;;;;;;;0.10;0.10;;;22.70;50.90;;;;;;5092705;28;20201;-45
2023/10/23 06:37:57;;;;;;;0.00;0.00;;;22.70;50.90;;;;;;5093797;28;20201;-46
2023/10/23 06:40:28;;;;;;;0.10;0.10;;;22.70;50.90;;;;;;5093455;28;20205;-47
2023/10/23 06:43:00;;;;;;;0.00;0.00;;;22.70;50.90;;;;;;5091515;28;20202;-45
2023/10/23 06:45:31;;;;;;;0.10;0.10;;;22.70;51.00;;;;;;5092074;28;20202;-46
2023/10/23 06:48:02;;;;;;;0.10;0.10;;;22.70;50.90;;;;;;5091844;28;20194;-47
2023/10/23 06:50:34;;;;;;;0.10;0.10;;;22.70;50.90;;;;;;5093748;28;20701;-46
2023/10/23 06:53:04;;;;;;;0.10;0.10;;;22.70;51.00;;;;;;5093199;28;20217;-46
2023/10/23 06:55:35;;;;;;;0.10;0.10;;;22.70;51.00;;;;;;5093652;28;20190;-48
2023/10/23 06:58:08;;;;;;;0.00;0.00;;;22.60;50.90;;;;;;5092754;28;20214;-46
2023/10/23 07:00:38;;;;;;;0.00;0.00;;;22.60;50.80;;;;;;5092726;28;20194;-48
2023/10/23 07:03:09;;;;;;;0.08;0.08;;;22.60;50.70;;;;;;5092528;28;20209;-46
2023/10/23 07:05:40;;;;;;;0.10;0.10;;;22.60;50.60;;;;;;5072829;28;20205;-48
2023/10/23 07:08:11;;;;;;;0.10;0.10;;;22.60;50.60;;;;;;5072472;28;20223;-45
2023/10/23 07:10:41;;;;;;;0.10;0.10;;;22.60;50.60;;;;;;5072391;28;20234;-47
2023/10/23 07:13:14;;;;;;;0.10;0.10;;;22.60;50.60;;;;;;5072304;28;20198;-48
2023/10/23 07:15:45;;;;;;;0.10;0.10;;;22.50;50.50;;;;;;5072652;28;20244;-45
2023/10/23 07:18:19;;;;;;;0.00;0.00;;;22.50;50.40;;;;;;5072348;28;20222;-45
2023/10/23 07:21:00;;;;;;;0.10;0.10;;;22.50;50.50;;;;;;5092161;28;20225;-48
2023/10/23 07:23:31;;;;;;;0.00;0.00;;;22.50;50.50;;;;;;5092612;28;20229;-45
2023/10/23 07:26:12;;;;;;;0.00;0.00;;;22.40;50.50;;;;;;5091878;28;20243;-48
2023/10/23 07:28:45;;;;;;;0.03;0.03;;;22.40;50.50;;;;;;5092035;28;20256;-47
2023/10/23 07:31:16;;;;;;;0.00;0.00;;;22.40;50.50;;;;;;5090486;28;20198;-46
2023/10/23 07:33:47;;;;;;;0.10;0.10;;;22.40;50.50;;;;;;5092518;28;20692;-47
2023/10/23 07:36:18;;;;;;;0.00;0.00;;;22.40;50.50;;;;;;5092457;28;20568;-45
2023/10/23 07:38:48;;;;;;;0.10;0.10;;;22.40;50.50;;;;;;5092732;28;20689;-46
2023/10/23 07:41:19;;;;;;;0.10;0.10;;;22.30;50.50;;;;;;5092734;28;20194;-45
2023/10/23 07:43:52;;;;;;;0.10;0.10;;;22.30;50.40;;;;;;5092054;28;20205;-46
2023/10/23 07:46:22;;;;;;;0.10;0.10;;;22.30;50.40;;;;;;5092512;28;20198;-50
2023/10/23 07:48:53;;;;;;;0.10;0.10;;;22.30;50.40;;;;;;5092297;28;20214;-47
2023/10/23 07:51:24;;;;;;;0.03;0.03;;;22.30;50.40;;;;;;5092391;28;20291;-46
2023/10/23 07:53:54;;;;;;;0.03;0.03;;;22.30;50.40;;;;;;5091678;28;20198;-46
2023/10/23 07:56:25;;;;;;;0.10;0.10;;;22.20;50.40;;;;;;5091598;28;20642;-49
2023/10/23 07:58:59;;;;;;;0.00;0.00;;;22.20;50.30;;;;;;5092219;28;20218;-45
2023/10/23 08:01:30;;;;;;;0.17;0.17;;;22.20;50.30;;;;;;5092304;28;20194;-47
2023/10/23 08:04:01;;;;;;;0.10;0.10;;;22.20;50.30;;;;;;5091495;28;20217;-46
2023/10/23 08:06:31;;;;;;;0.08;0.08;;;22.20;50.30;;;;;;5092653;28;20201;-45
2023/10/23 08:09:03;;;;;;;0.00;0.00;;;22.10;50.30;;;;;;5091682;28;20218;-45
2023/10/23 08:11:34;;;;;;;0.08;0.08;;;22.10;50.30;;;;;;5090896;28;20202;-45
2023/10/23 08:14:06;;;;;;;0.10;0.10;;;22.10;50.30;;;;;;5091720;28;20197;-48
2023/10/23 08:16:41;;;;;;;0.10;0.10;;;22.00;50.30;;;;;;5088565;28;20576;-49
2023/10/23 08:21:59;;;;;;;0.10;0.10;;;22.00;50.30;;;;;;5073008;28;20205;-45
2023/10/23 08:24:30;;;;;;;0.03;0.03;;;22.00;50.30;;;;;;5071762;28;20312;-45
2023/10/23 08:27:04;;;;;;;0.10;0.10;;;22.00;50.30;;;;;;5071676;28;20658;-43
2023/10/23 08:29:37;;;;;;;0.00;0.00;;;22.00;50.30;;;;;;5071189;28;20222;-45
2023/10/23 08:32:08;;;;;;;0.10;0.10;;;21.90;50.30;;;;;;5071417;28;20194;-47
2023/10/23 08:34:38;;;;;;;0.10;0.10;;;21.90;50.50;;;;;;5071292;28;20559;-46
2023/10/23 08:37:09;;;;;;;0.10;0.10;;;21.90;50.60;;;;;;5071348;28;20190;-47
2023/10/23 08:39:40;;;;;;;0.10;0.10;;;21.90;50.60;;;;;;5069829;28;20241;-47
2023/10/23 08:42:10;;;;;;;0.10;0.10;;;21.90;50.60;;;;;;5083124;28;20195;-44
2023/10/23 08:44:43;;;;;;;0.05;0.05;;;21.80;50.50;;;;;;5090474;28;20205;-46
2023/10/23 08:47:14;;;;;;;0.10;0.10;;;21.80;50.50;;;;;;5078967;28;20522;-45
2023/10/23 08:49:45;;;;;;;0.10;0.10;;;21.80;50.50;;;;;;5074145;28;20593;-45
2023/10/23 08:52:16;;;;;;;0.10;0.10;;;21.80;51.10;;;;;;5110971;28;20204;-45
2023/10/23 08:54:47;;;;;;;0.10;0.10;;;21.70;51.10;;;;;;5092453;28;20198;-47
2023/10/23 08:57:20;;;;;;;0.10;0.10;;;21.70;50.50;;;;;;5090528;28;20593;-45
2023/10/23 08:59:53;;;;;;;0.10;0.10;;;21.70;50.50;;;;;;5079098;28;20223;-46
2023/10/23 09:02:24;;;;;;;0.10;0.10;;;21.60;50.50;;;;;;5101849;28;20669;-47
2023/10/23 09:04:55;;;;;;;0.10;0.10;;;21.60;51.10;;;;;;5078337;28;20202;-45
2023/10/23 09:07:25;;;;;;;0.10;0.10;;;21.60;50.50;;;;;;5083916;28;20247;-43
2023/10/23 09:10:03;;;;;;;0.10;0.10;;;21.60;50.50;;;;;;5090392;28;20225;-43
2023/10/23 09:12:34;;;;;;;0.10;0.10;;;21.50;50.50;;;;;;5090564;28;20251;-48
2023/10/23 09:15:18;;;;;;;0.10;0.10;;;21.50;50.40;;;;;;5091478;28;20552;-46
2023/10/23 09:17:50;;;;;;;0.03;0.03;;;21.50;50.50;;;;;;5090884;28;20202;-43
2023/10/23 09:20:26;;;;;;;0.00;0.00;;;21.40;50.40;;;;;;5090769;28;20256;-42
2023/10/23 09:22:57;;;;;;;0.17;0.17;;;21.50;50.40;;;;;;5092020;28;20243;-44
2023/10/23 09:25:28;;;;;;;0.00;0.00;;;21.50;50.40;;;;;;5099244;28;20201;-45
2023/10/23 09:28:00;;;;;;;0.10;0.10;;;21.40;50.30;;;;;;5106348;28;20182;-48
2023/10/23 09:30:32;;;;;;;0.10;0.10;;;21.40;50.40;;;;;;5098609;28;20692;-48
2023/10/23 09:33:03;;;;;;;0.00;0.00;;;21.40;50.30;;;;;;5114477;28;20204;-45
2023/10/23 09:35:35;;;;;;;0.10;0.10;;;21.30;50.30;;;;;;5081552;28;20199;-45
2023/10/23 09:38:15;;;;;;;0.00;0.00;;;21.30;50.30;;;;;;5094489;28;20632;-45
2023/10/23 09:40:48;;;;;;;0.00;0.00;;;21.30;50.20;;;;;;5094160;28;20194;-46
2023/10/23 09:43:21;;;;;;;0.00;0.00;;;21.30;50.20;;;;;;5094468;28;20197;-45
2023/10/23 09:45:57;;;;;;;0.10;0.10;;;21.20;50.20;;;;;;5094444;28;20511;-45
2023/10/23 09:48:30;;;;;;;0.00;0.00;;;21.20;50.20;;;;;;5094038;28;20205;-45
2023/10/23 09:51:03;;;;;;;0.00;0.00;;;21.20;50.30;;;;;;5093790;28;20735;-47
2023/10/23 09:53:35;;;;;;;0.00;0.00;;;21.20;50.30;;;;;;5093710;28;20224;-47
2023/10/23 09:56:09;;;;;;;0.00;0.00;;;21.10;50.20;;;;;;5094573;28;20557;-47
2023/10/23 09:58:43;;;;;;;0.05;0.05;;;21.10;50.20;;;;;;5094056;28;20240;-48
2023/10/23 10:01:19;;;;;;;0.10;0.10;;;21.10;50.20;;;;;;5093420;28;20216;-46
2023/10/23 10:03:53;;;;;;;0.10;0.10;;;21.10;50.20;;;;;;5086523;28;20670;-46
2023/10/23 10:06:26;;;;;;;0.10;0.10;;;21.00;50.10;;;;;;5085201;28;20190;-44
2023/10/23 10:08:58;;;;;;;0.10;0.10;;;21.00;50.10;;;;;;5093327;28;20689;-44
2023/10/23 10:11:29;;;;;;;0.10;0.10;;;21.00;50.10;;;;;;5093785;28;20218;-44
2023/10/23 10:14:00;;;;;;;0.10;0.10;;;21.00;50.70;;;;;;5085423;28;20655;-47
2023/10/23 10:16:34;;;;;;;0.10;0.10;;;20.90;50.10;;;;;;5084830;28;20186;-44
2023/10/23 10:19:06;;;;;;;0.10;0.10;;;20.90;50.10;;;;;;5089963;28;20214;-47
2023/10/23 10:21:47;;;;;;;0.00;0.00;;;20.90;50.10;;;;;;5093578;28;20186;-47
2023/10/23 10:24:20;;;;;;;0.00;0.00;;;20.80;50.00;;;;;;5093099;28;20625;-48
2023/10/23 10:26:52;;;;;;;0.10;0.10;;;20.80;50.10;;;;;;5092948;28;20202;-46
2023/10/23 10:29:23;;;;;;;0.10;0.10;;;20.80;50.10;;;;;;5093687;28;20693;-45
2023/10/23 10:32:11;;;;;;;0.08;0.08;;;20.80;50.10;;;;;;5093136;28;20229;-45
2023/10/23 10:34:53;;;;;;;0.00;0.00;;;20.70;50.10;;;;;;5092892;28;20202;-45
2023/10/23 10:37:28;;;;;;;0.10;0.10;;;20.70;50.10;;;;;;5093069;28;20194;-48
2023/10/23 10:40:11;;;;;;;0.00;0.00;;;20.70;50.10;;;;;;5093493;28;20310;-45
2023/10/23 10:42:42;;;;;;;0.08;0.08;;;20.70;50.10;;;;;;5113562;28;20201;-45
2023/10/23 10:45:19;;;;;;;0.00;0.00;;;20.60;50.00;;;;;;5114052;28;20201;-45
2023/10/23 10:47:54;;;;;;;0.10;0.10;;;20.60;50.00;;;;;;5113010;28;20348;-45
2023/10/23 10:50:35;;;;;;;0.10;0.10;;;20.60;50.00;;;;;;5113142;28;20462;-46
2023/10/23 10:53:07;;;;;;;0.10;0.10;;;20.50;50.00;;;;;;5112800;28;20250;-47
2023/10/23 10:55:38;;;;;;;0.00;0.00;;;20.50;50.00;;;;;;5100929;28;20194;-47
2023/10/23 10:58:09;;;;;;;0.10;0.10;;;20.50;50.00;;;;;;5092965;28;20218;-45
2023/10/23 11:00:40;;;;;;;0.10;0.10;;;20.50;50.00;;;;;;5092504;28;20221;-49
2023/10/23 11:03:12;;;;;;;0.10;0.10;;;20.40;50.00;;;;;;5093260;28;20205;-44
2023/10/23 11:05:48;;;;;;;0.08;0.08;;;20.40;50.00;;;;;;5092893;28;20202;-45
2023/10/23 11:08:19;;;;;;;0.10;0.10;;;20.40;50.00;;;;;;5091756;28;20229;-45
2023/10/23 11:10:50;;;;;;;0.10;0.10;;;20.40;50.00;;;;;;5091607;28;20214;-47
2023/10/23 11:13:21;;;;;;;0.10;0.10;;;20.30;50.00;;;;;;5092619;28;20198;-45
2023/10/23 11:15:55;;;;;;;0.10;0.10;;;20.30;50.00;;;;;;5091806;28;20190;-45
2023/10/23 11:18:28;;;;;;;0.10;0.10;;;20.30;50.00;;;;;;5092560;28;20217;-47
2023/10/23 11:21:00;;;;;;;0.10;0.10;;;20.30;50.00;;;;;;5092736;28;20213;-45
2023/10/23 11:23:32;;;;;;;0.10;0.10;;;20.30;50.00;;;;;;5092100;28;20195;-45
2023/10/23 11:26:03;;;;;;;0.10;0.10;;;20.20;50.00;;;;;;5092752;28;20193;-46
2023/10/23 11:28:34;;;;;;;0.10;0.10;;;20.20;50.00;;;;;;5090222;28;20302;-45
2023/10/23 11:31:05;;;;;;;0.10;0.10;;;20.20;50.00;;;;;;5092184;28;20214;-43
2023/10/23 11:33:38;;;;;;;0.00;0.00;;;20.20;50.00;;;;;;5092061;28;20202;-44
2023/10/23 11:36:10;;;;;;;0.10;0.10;;;20.10;50.00;;;;;;5092880;28;20198;-46
2023/10/23 11:38:40;;;;;;;0.10;0.10;;;20.10;50.00;;;;;;5092501;28;20218;-44
2023/10/23 11:41:13;;;;;;;0.10;0.10;;;20.10;50.00;;;;;;5092694;28;20197;-44
2023/10/23 11:43:44;;;;;;;0.10;0.10;;;20.10;50.00;;;;;;5092350;28;20205;-45
2023/10/23 11:46:14;;;;;;;0.00;0.00;;;20.00;50.00;;;;;;5092288;28;20221;-47
2023/10/23 11:48:50;;;;;;;0.00;0.00;;;20.00;50.00;;;;;;5092453;28;20229;-48
2023/10/23 11:51:20;;;;;;;0.00;0.00;;;20.00;50.00;;;;;;5092006;28;20592;-45
2023/10/23 11:53:51;;;;;;;0.00;0.00;;;20.00;50.00;;;;;;5092300;28;20190;-44
2023/10/23 11:56:22;;;;;;;0.00;0.00;;;20.00;50.00;;;;;;5092179;28;20209;-48
2023/10/23 11:58:52;;;;;;;0.00;0.00;;;19.90;50.00;;;;;;5092409;28;20233;-44
2023/10/23 12:01:23;;;;;;;0.00;0.00;;;19.90;50.00;;;;;;5092220;28;20202;-45
2023/10/23 12:03:56;;;;;;;0.20;0.20;;;19.90;50.00;;;;;;5084743;28;20210;-47
2023/10/23 12:06:26;;;;;;;0.00;0.00;;;19.90;50.00;;;;;;5072584;28;20198;-48
2023/10/23 12:08:57;;;;;;;0.10;0.10;;;19.90;50.00;;;;;;5071883;28;20226;-46
2023/10/23 12:11:28;;;;;;;0.00;0.00;;;19.80;50.00;;;;;;5072127;28;20222;-44
2023/10/23 12:13:59;;;;;;;0.10;0.10;;;19.80;49.90;;;;;;5072129;28;20634;-47
2023/10/23 12:16:30;;;;;;;0.00;0.00;;;19.80;49.90;;;;;;5071708;28;20659;-49
2023/10/23 12:19:04;;;;;;;0.10;0.10;;;19.80;50.00;;;;;;5071801;28;20683;-45
2023/10/23 12:21:34;;;;;;;0.10;0.10;;;19.70;49.90;;;;;;5072258;28;20195;-44
2023/10/23 12:24:05;;;;;;;0.08;0.08;;;19.70;50.00;;;;;;5073697;28;20190;-44
2023/10/23 12:26:36;;;;;;;0.00;0.00;;;19.70;50.00;;;;;;5071655;28;20198;-45
2023/10/23 12:29:09;;;;;;;0.00;0.00;;;19.70;50.00;;;;;;5075665;28;20218;-47
2023/10/23 12:31:40;;;;;;;0.00;0.00;;;19.70;50.00;;;;;;5091703;28;20709;-46
2023/10/23 12:34:12;;;;;;;0.00;0.00;;;19.70;50.00;;;;;;5091647;28;20653;-47
2023/10/23 12:36:43;;;;;;;0.10;0.10;;;19.60;49.90;;;;;;5091463;28;20213;-45
2023/10/23 12:39:13;;;;;;;0.10;0.10;;;19.60;50.00;;;;;;5091489;28;20218;-45
2023/10/23 12:41:44;;;;;;;0.10;0.10;;;19.60;50.00;;;;;;5091571;28;20193;-43
2023/10/23 12:44:15;;;;;;;0.03;0.03;;;19.60;50.00;;;;;;5091927;28;20190;-46
2023/10/23 12:46:45;;;;;;;0.00;0.00;;;19.60;50.00;;;;;;5091746;28;20220;-44
2023/10/23 12:49:18;;;;;;;0.10;0.10;;;19.50;49.90;;;;;;5091565;28;20222;-45
2023/10/23 12:51:49;;;;;;;0.05;0.05;;;19.50;50.00;;;;;;5091798;28;20228;-46
2023/10/23 12:54:19;;;;;;;0.00;0.00;;;19.50;50.00;;;;;;5091603;28;20551;-44
2023/10/23 12:56:50;;;;;;;0.10;0.10;;;19.50;50.00;;;;;;5091735;28;20319;-46
2023/10/23 12:59:20;;;;;;;0.00;0.00;;;19.50;50.00;;;;;;5096002;28;20214;-45
2023/10/23 13:01:51;;;;;;;0.03;0.03;;;19.50;50.00;;;;;;5095874;28;20538;-44
2023/10/23 13:04:24;;;;;;;0.10;0.10;;;19.40;49.90;;;;;;5095078;28;20703;-46
2023/10/23 13:06:55;;;;;;;0.08;0.08;;;19.40;50.00;;;;;;5095207;28;20190;-45
2023/10/23 13:09:25;;;;;;;0.00;0.00;;;19.40;50.00;;;;;;5095436;28;20218;-44
2023/10/23 13:11:56;;;;;;;0.10;0.10;;;19.40;50.40;;;;;;5095416;28;20438;-45